Etusivu
METAR-TAF:

METAR-TAF

Lentoasemat :

Palacios Municipal Airport

Palacios, Texas, Yhdysvallat

Leveyspiiri: 28-43-39N, Pituuspiiri: 096-15-03W, korkeus merenpinnasta: 5 m

Tämänhetkinen sää

Tämä raportti tehtiin 29 minuuttia sitten, kello 23.53 UTC
Tuuli 14 kn idästä/kaakosta
Lämpötila 22°C
Kosteus 88%
Ilmanpaine 1015 hPa
Näkyvyys: 16.1 km
Hajonneita pilviä 2600 ft:n korkeudessa
Hajonneita pilviä 4500 ft:n korkeudessa
Pilvistä 6500 ft:n korkeudessa

METAR: KPSX 072353Z AUTO 11014KT 10SM BKN026 BKN045 OVC065 22/20 A2996 RMK AO2 RAB31E45 SLP146 P0000 60000 T02170200 10239 20211 52005

Aika: 18:22 (00:22 UTC)


TAF: puuttuu

Säähavainnot ja -ennusteet yli 4000 lentoasemalta (METAR- ja TAF-raportit).

Käytössä olevat sääasemat on merkitty karttaan keltaisilla ja punaisilla pisteillä.

Aseta hiiri pisteen päälle nähdäksesi sääaseman nimen.

Klikkaa sitten nähdäksesi säähavainnot ja -ennusteet.

Kartan vaihtaminen: klikkaa mustalla rastilla varustettuja vihreitä pisteitä, niin voit zoomata sisään; viivalla varustettua vihreää pistettä, niin voit zoomata ulos tai vihreitä nuolia, niin pääset viereisille kartoille.


METAR-TAF: